sensor_id;sensor_type;location;lat;lon;timestamp;temperature;humidity
19586;DHT22;9939;49.246;9.106;2022-07-12T00:01:51;16.50;99.90
19586;DHT22;9939;49.246;9.106;2022-07-12T00:04:18;16.60;99.90
19586;DHT22;9939;49.246;9.106;2022-07-12T00:06:46;16.60;99.90
19586;DHT22;9939;49.246;9.106;2022-07-12T00:09:13;16.60;99.90
19586;DHT22;9939;49.246;9.106;2022-07-12T00:11:40;16.60;99.90
19586;DHT22;9939;49.246;9.106;2022-07-12T00:14:08;16.70;99.90
19586;DHT22;9939;49.246;9.106;2022-07-12T00:16:36;16.70;99.90
19586;DHT22;9939;49.246;9.106;2022-07-12T00:19:03;16.90;99.90
19586;DHT22;9939;49.246;9.106;2022-07-12T00:21:31;16.90;99.90
19586;DHT22;9939;49.246;9.106;2022-07-12T00:23:58;17.00;99.90
19586;DHT22;9939;49.246;9.106;2022-07-12T00:26:25;17.00;99.90
19586;DHT22;9939;49.246;9.106;2022-07-12T00:28:53;16.90;99.90
19586;DHT22;9939;49.246;9.106;2022-07-12T00:31:20;16.90;99.90
19586;DHT22;9939;49.246;9.106;2022-07-12T00:33:47;17.00;99.90
19586;DHT22;9939;49.246;9.106;2022-07-12T00:36:14;17.00;99.90
19586;DHT22;9939;49.246;9.106;2022-07-12T00:38:41;17.00;99.90
19586;DHT22;9939;49.246;9.106;2022-07-12T00:41:09;17.00;99.90
19586;DHT22;9939;49.246;9.106;2022-07-12T00:43:36;16.90;99.90
19586;DHT22;9939;49.246;9.106;2022-07-12T00:46:04;16.80;99.90
19586;DHT22;9939;49.246;9.106;2022-07-12T00:48:32;16.70;99.90
19586;DHT22;9939;49.246;9.106;2022-07-12T00:51:00;16.60;99.90
19586;DHT22;9939;49.246;9.106;2022-07-12T00:53:27;16.50;99.90
19586;DHT22;9939;49.246;9.106;2022-07-12T00:55:56;16.50;99.90
19586;DHT22;9939;49.246;9.106;2022-07-12T00:58:24;16.40;99.90
19586;DHT22;9939;49.246;9.106;2022-07-12T01:00:51;16.30;99.90
19586;DHT22;9939;49.246;9.106;2022-07-12T01:03:19;16.20;99.90
19586;DHT22;9939;49.246;9.106;2022-07-12T01:05:46;16.30;99.90
19586;DHT22;9939;49.246;9.106;2022-07-12T01:08:15;16.10;99.90
19586;DHT22;9939;49.246;9.106;2022-07-12T01:10:43;15.90;99.90
19586;DHT22;9939;49.246;9.106;2022-07-12T01:13:11;15.80;99.90
19586;DHT22;9939;49.246;9.106;2022-07-12T01:15:39;15.90;99.90
19586;DHT22;9939;49.246;9.106;2022-07-12T01:18:07;15.90;99.90
19586;DHT22;9939;49.246;9.106;2022-07-12T01:20:34;16.00;99.90
19586;DHT22;9939;49.246;9.106;2022-07-12T01:23:02;16.10;99.90
19586;DHT22;9939;49.246;9.106;2022-07-12T01:25:29;15.90;99.90
19586;DHT22;9939;49.246;9.106;2022-07-12T01:27:57;15.90;99.90
19586;DHT22;9939;49.246;9.106;2022-07-12T01:30:24;15.80;99.90
19586;DHT22;9939;49.246;9.106;2022-07-12T01:32:51;15.60;99.90
19586;DHT22;9939;49.246;9.106;2022-07-12T01:35:20;15.60;99.90
19586;DHT22;9939;49.246;9.106;2022-07-12T01:37:48;15.50;99.90
19586;DHT22;9939;49.246;9.106;2022-07-12T01:40:15;15.70;99.90
19586;DHT22;9939;49.246;9.106;2022-07-12T01:42:43;15.60;99.90
19586;DHT22;9939;49.246;9.106;2022-07-12T01:45:13;15.60;99.90
19586;DHT22;9939;49.246;9.106;2022-07-12T01:47:40;15.50;99.90
19586;DHT22;9939;49.246;9.106;2022-07-12T01:50:08;15.30;99.90
19586;DHT22;9939;49.246;9.106;2022-07-12T01:52:37;15.20;99.90
19586;DHT22;9939;49.246;9.106;2022-07-12T01:55:05;15.30;99.90
19586;DHT22;9939;49.246;9.106;2022-07-12T01:57:32;15.30;99.90
19586;DHT22;9939;49.246;9.106;2022-07-12T02:00:03;15.30;99.90
19586;DHT22;9939;49.246;9.106;2022-07-12T02:02:31;15.20;99.90
19586;DHT22;9939;49.246;9.106;2022-07-12T02:05:02;15.20;99.90
19586;DHT22;9939;49.246;9.106;2022-07-12T02:07:30;15.10;99.90
19586;DHT22;9939;49.246;9.106;2022-07-12T02:09:57;15.00;99.90
19586;DHT22;9939;49.246;9.106;2022-07-12T02:12:24;14.90;99.90
19586;DHT22;9939;49.246;9.106;2022-07-12T02:14:51;14.90;99.90
19586;DHT22;9939;49.246;9.106;2022-07-12T02:17:19;14.90;99.90
19586;DHT22;9939;49.246;9.106;2022-07-12T02:19:46;14.90;99.90
19586;DHT22;9939;49.246;9.106;2022-07-12T02:22:12;14.90;99.90
19586;DHT22;9939;49.246;9.106;2022-07-12T02:24:39;14.90;99.90
19586;DHT22;9939;49.246;9.106;2022-07-12T02:27:07;15.00;99.90
19586;DHT22;9939;49.246;9.106;2022-07-12T02:29:34;15.00;99.90
19586;DHT22;9939;49.246;9.106;2022-07-12T02:32:02;15.00;99.90
19586;DHT22;9939;49.246;9.106;2022-07-12T02:34:30;14.90;99.90
19586;DHT22;9939;49.246;9.106;2022-07-12T02:36:57;15.00;99.90
19586;DHT22;9939;49.246;9.106;2022-07-12T02:39:24;14.90;99.90
19586;DHT22;9939;49.246;9.106;2022-07-12T02:41:51;14.90;99.90
19586;DHT22;9939;49.246;9.106;2022-07-12T02:44:18;14.90;99.90
19586;DHT22;9939;49.246;9.106;2022-07-12T02:46:46;14.70;99.90
19586;DHT22;9939;49.246;9.106;2022-07-12T02:49:14;14.80;99.90
19586;DHT22;9939;49.246;9.106;2022-07-12T02:51:41;14.80;99.90
19586;DHT22;9939;49.246;9.106;2022-07-12T02:54:08;14.70;99.90
19586;DHT22;9939;49.246;9.106;2022-07-12T02:56:35;14.60;99.90
19586;DHT22;9939;49.246;9.106;2022-07-12T02:59:02;14.60;99.90
19586;DHT22;9939;49.246;9.106;2022-07-12T03:01:29;14.50;99.90
19586;DHT22;9939;49.246;9.106;2022-07-12T03:03:56;14.40;99.90
19586;DHT22;9939;49.246;9.106;2022-07-12T03:06:23;14.30;99.90
19586;DHT22;9939;49.246;9.106;2022-07-12T03:08:50;14.20;99.90
19586;DHT22;9939;49.246;9.106;2022-07-12T03:11:17;14.10;99.90
19586;DHT22;9939;49.246;9.106;2022-07-12T03:13:44;14.10;99.90
19586;DHT22;9939;49.246;9.106;2022-07-12T03:16:11;14.00;99.90
19586;DHT22;9939;49.246;9.106;2022-07-12T03:18:40;14.00;99.90
19586;DHT22;9939;49.246;9.106;2022-07-12T03:21:07;13.90;99.90
19586;DHT22;9939;49.246;9.106;2022-07-12T03:23:34;13.90;99.90
19586;DHT22;9939;49.246;9.106;2022-07-12T03:26:02;13.80;99.90
19586;DHT22;9939;49.246;9.106;2022-07-12T03:28:29;13.80;99.90
19586;DHT22;9939;49.246;9.106;2022-07-12T03:30:56;13.90;99.90
19586;DHT22;9939;49.246;9.106;2022-07-12T03:33:23;13.90;99.90
19586;DHT22;9939;49.246;9.106;2022-07-12T03:35:59;13.90;99.90
19586;DHT22;9939;49.246;9.106;2022-07-12T03:38:26;14.00;99.90
19586;DHT22;9939;49.246;9.106;2022-07-12T03:40:53;13.80;99.90
19586;DHT22;9939;49.246;9.106;2022-07-12T03:43:19;13.80;99.90
19586;DHT22;9939;49.246;9.106;2022-07-12T03:45:46;13.80;99.90
19586;DHT22;9939;49.246;9.106;2022-07-12T03:48:13;13.80;99.90
19586;DHT22;9939;49.246;9.106;2022-07-12T03:50:40;13.80;99.90
19586;DHT22;9939;49.246;9.106;2022-07-12T03:53:07;13.90;99.90
19586;DHT22;9939;49.246;9.106;2022-07-12T03:55:35;13.90;99.90
19586;DHT22;9939;49.246;9.106;2022-07-12T03:58:02;14.00;99.90
19586;DHT22;9939;49.246;9.106;2022-07-12T04:00:29;14.10;99.90
19586;DHT22;9939;49.246;9.106;2022-07-12T04:02:56;14.10;99.90
19586;DHT22;9939;49.246;9.106;2022-07-12T04:05:23;14.10;99.90
19586;DHT22;9939;49.246;9.106;2022-07-12T04:07:53;14.20;99.90
19586;DHT22;9939;49.246;9.106;2022-07-12T04:10:21;14.20;99.90
19586;DHT22;9939;49.246;9.106;2022-07-12T04:12:48;14.20;99.90
19586;DHT22;9939;49.246;9.106;2022-07-12T04:15:16;14.10;99.90
19586;DHT22;9939;49.246;9.106;2022-07-12T04:17:43;14.10;99.90
19586;DHT22;9939;49.246;9.106;2022-07-12T04:20:10;14.20;99.90
19586;DHT22;9939;49.246;9.106;2022-07-12T04:22:38;14.30;99.90
19586;DHT22;9939;49.246;9.106;2022-07-12T04:25:08;14.30;99.90
19586;DHT22;9939;49.246;9.106;2022-07-12T04:27:36;14.20;99.90
19586;DHT22;9939;49.246;9.106;2022-07-12T04:30:04;14.20;99.90
19586;DHT22;9939;49.246;9.106;2022-07-12T04:32:31;14.30;99.90
19586;DHT22;9939;49.246;9.106;2022-07-12T04:34:58;14.30;99.90
19586;DHT22;9939;49.246;9.106;2022-07-12T04:37:25;14.30;99.90
19586;DHT22;9939;49.246;9.106;2022-07-12T04:39:52;14.30;99.90
19586;DHT22;9939;49.246;9.106;2022-07-12T04:42:19;14.30;99.90
19586;DHT22;9939;49.246;9.106;2022-07-12T04:44:46;14.50;99.90
19586;DHT22;9939;49.246;9.106;2022-07-12T04:47:13;14.50;99.90
19586;DHT22;9939;49.246;9.106;2022-07-12T04:49:40;14.50;99.90
19586;DHT22;9939;49.246;9.106;2022-07-12T04:52:07;14.60;99.90
19586;DHT22;9939;49.246;9.106;2022-07-12T04:54:33;14.70;99.90
19586;DHT22;9939;49.246;9.106;2022-07-12T04:57:01;14.80;99.90
19586;DHT22;9939;49.246;9.106;2022-07-12T04:59:28;14.90;99.90
19586;DHT22;9939;49.246;9.106;2022-07-12T05:01:54;15.00;99.90
19586;DHT22;9939;49.246;9.106;2022-07-12T05:04:21;15.10;99.90
19586;DHT22;9939;49.246;9.106;2022-07-12T05:06:48;15.30;99.90
19586;DHT22;9939;49.246;9.106;2022-07-12T05:09:16;15.50;99.90
19586;DHT22;9939;49.246;9.106;2022-07-12T05:11:43;15.60;99.90
19586;DHT22;9939;49.246;9.106;2022-07-12T05:14:10;15.70;99.90
19586;DHT22;9939;49.246;9.106;2022-07-12T05:16:37;15.70;99.90
19586;DHT22;9939;49.246;9.106;2022-07-12T05:19:04;16.10;99.90
19586;DHT22;9939;49.246;9.106;2022-07-12T05:21:31;16.10;99.90
19586;DHT22;9939;49.246;9.106;2022-07-12T05:23:59;16.20;99.90
19586;DHT22;9939;49.246;9.106;2022-07-12T05:26:25;16.30;99.90
19586;DHT22;9939;49.246;9.106;2022-07-12T05:28:53;16.40;99.90
19586;DHT22;9939;49.246;9.106;2022-07-12T05:31:20;16.60;99.90
19586;DHT22;9939;49.246;9.106;2022-07-12T05:33:48;16.70;99.90
19586;DHT22;9939;49.246;9.106;2022-07-12T05:36:15;16.90;99.90
19586;DHT22;9939;49.246;9.106;2022-07-12T05:38:42;17.00;99.90
19586;DHT22;9939;49.246;9.106;2022-07-12T05:41:09;17.20;99.90
19586;DHT22;9939;49.246;9.106;2022-07-12T05:43:36;17.40;99.90
19586;DHT22;9939;49.246;9.106;2022-07-12T05:46:03;17.50;99.90
19586;DHT22;9939;49.246;9.106;2022-07-12T05:48:31;17.70;99.90
19586;DHT22;9939;49.246;9.106;2022-07-12T05:50:57;17.80;99.90
19586;DHT22;9939;49.246;9.106;2022-07-12T05:53:43;17.90;99.90
19586;DHT22;9939;49.246;9.106;2022-07-12T05:56:10;18.20;99.90
19586;DHT22;9939;49.246;9.106;2022-07-12T05:58:37;18.20;99.90
19586;DHT22;9939;49.246;9.106;2022-07-12T06:01:06;18.30;99.90
19586;DHT22;9939;49.246;9.106;2022-07-12T06:03:33;18.60;99.90
19586;DHT22;9939;49.246;9.106;2022-07-12T06:06:00;18.80;99.90
19586;DHT22;9939;49.246;9.106;2022-07-12T06:08:27;19.00;99.90
19586;DHT22;9939;49.246;9.106;2022-07-12T06:10:54;19.10;99.90
19586;DHT22;9939;49.246;9.106;2022-07-12T06:13:21;19.20;99.90
19586;DHT22;9939;49.246;9.106;2022-07-12T06:15:48;19.30;99.90
19586;DHT22;9939;49.246;9.106;2022-07-12T06:18:15;19.60;99.90
19586;DHT22;9939;49.246;9.106;2022-07-12T06:20:42;19.60;99.90
19586;DHT22;9939;49.246;9.106;2022-07-12T06:23:09;19.60;99.90
19586;DHT22;9939;49.246;9.106;2022-07-12T06:25:36;19.80;99.90
19586;DHT22;9939;49.246;9.106;2022-07-12T06:28:11;20.00;99.90
19586;DHT22;9939;49.246;9.106;2022-07-12T06:30:39;20.30;99.90
19586;DHT22;9939;49.246;9.106;2022-07-12T06:33:06;20.20;99.90
19586;DHT22;9939;49.246;9.106;2022-07-12T06:35:33;20.40;99.90
19586;DHT22;9939;49.246;9.106;2022-07-12T06:38:01;20.40;99.90
19586;DHT22;9939;49.246;9.106;2022-07-12T06:40:28;20.60;99.90
19586;DHT22;9939;49.246;9.106;2022-07-12T06:42:55;20.30;99.90
19586;DHT22;9939;49.246;9.106;2022-07-12T06:45:23;20.40;99.90
19586;DHT22;9939;49.246;9.106;2022-07-12T06:47:53;20.50;99.90
19586;DHT22;9939;49.246;9.106;2022-07-12T06:50:20;20.50;99.90
19586;DHT22;9939;49.246;9.106;2022-07-12T06:52:47;20.60;99.90
19586;DHT22;9939;49.246;9.106;2022-07-12T06:55:15;21.10;99.90
19586;DHT22;9939;49.246;9.106;2022-07-12T06:57:42;21.20;99.90
19586;DHT22;9939;49.246;9.106;2022-07-12T07:00:09;21.30;99.90
19586;DHT22;9939;49.246;9.106;2022-07-12T07:02:38;21.30;99.90
19586;DHT22;9939;49.246;9.106;2022-07-12T07:05:07;21.20;99.90
19586;DHT22;9939;49.246;9.106;2022-07-12T07:07:34;21.20;99.90
19586;DHT22;9939;49.246;9.106;2022-07-12T07:10:01;21.30;99.90
19586;DHT22;9939;49.246;9.106;2022-07-12T07:12:28;21.30;99.90
19586;DHT22;9939;49.246;9.106;2022-07-12T07:14:55;21.20;99.90
19586;DHT22;9939;49.246;9.106;2022-07-12T07:17:22;21.40;99.90
19586;DHT22;9939;49.246;9.106;2022-07-12T07:19:48;21.60;99.90
19586;DHT22;9939;49.246;9.106;2022-07-12T07:22:15;21.70;99.90
19586;DHT22;9939;49.246;9.106;2022-07-12T07:24:42;21.60;99.90
19586;DHT22;9939;49.246;9.106;2022-07-12T07:27:09;21.70;99.90
19586;DHT22;9939;49.246;9.106;2022-07-12T07:29:36;21.70;99.90
19586;DHT22;9939;49.246;9.106;2022-07-12T07:32:22;21.80;99.90
19586;DHT22;9939;49.246;9.106;2022-07-12T07:34:49;21.50;99.90
19586;DHT22;9939;49.246;9.106;2022-07-12T07:37:16;21.80;99.90
19586;DHT22;9939;49.246;9.106;2022-07-12T07:39:43;22.00;99.90
19586;DHT22;9939;49.246;9.106;2022-07-12T07:42:10;22.20;99.90
19586;DHT22;9939;49.246;9.106;2022-07-12T07:44:37;22.10;99.90
19586;DHT22;9939;49.246;9.106;2022-07-12T07:47:24;22.10;99.90
19586;DHT22;9939;49.246;9.106;2022-07-12T07:49:54;22.00;99.90
19586;DHT22;9939;49.246;9.106;2022-07-12T07:52:22;21.70;99.90
19586;DHT22;9939;49.246;9.106;2022-07-12T07:54:48;21.80;99.90
19586;DHT22;9939;49.246;9.106;2022-07-12T07:57:16;22.10;99.90
19586;DHT22;9939;49.246;9.106;2022-07-12T07:59:42;22.50;99.90
19586;DHT22;9939;49.246;9.106;2022-07-12T08:02:11;22.60;99.90
19586;DHT22;9939;49.246;9.106;2022-07-12T08:04:39;22.80;99.90
19586;DHT22;9939;49.246;9.106;2022-07-12T08:07:06;22.80;99.90
19586;DHT22;9939;49.246;9.106;2022-07-12T08:09:33;23.00;99.90
19586;DHT22;9939;49.246;9.106;2022-07-12T08:11:59;22.80;99.90
19586;DHT22;9939;49.246;9.106;2022-07-12T08:14:26;22.80;99.90
19586;DHT22;9939;49.246;9.106;2022-07-12T08:16:53;22.80;99.90
19586;DHT22;9939;49.246;9.106;2022-07-12T08:19:20;23.00;99.90
19586;DHT22;9939;49.246;9.106;2022-07-12T08:21:47;23.30;99.90
19586;DHT22;9939;49.246;9.106;2022-07-12T08:24:14;23.60;99.90
19586;DHT22;9939;49.246;9.106;2022-07-12T08:26:41;23.70;99.90
19586;DHT22;9939;49.246;9.106;2022-07-12T08:29:07;24.00;99.90
19586;DHT22;9939;49.246;9.106;2022-07-12T08:31:34;24.40;99.90
19586;DHT22;9939;49.246;9.106;2022-07-12T08:34:03;24.30;99.90
19586;DHT22;9939;49.246;9.106;2022-07-12T08:36:30;24.70;99.90
19586;DHT22;9939;49.246;9.106;2022-07-12T08:39:00;25.20;99.90
19586;DHT22;9939;49.246;9.106;2022-07-12T08:41:26;25.10;99.90
19586;DHT22;9939;49.246;9.106;2022-07-12T08:43:54;25.10;99.90
19586;DHT22;9939;49.246;9.106;2022-07-12T08:46:21;24.80;99.90
19586;DHT22;9939;49.246;9.106;2022-07-12T08:48:48;24.90;99.90
19586;DHT22;9939;49.246;9.106;2022-07-12T08:51:19;25.40;99.90
19586;DHT22;9939;49.246;9.106;2022-07-12T08:53:46;25.10;99.90
19586;DHT22;9939;49.246;9.106;2022-07-12T08:56:32;25.80;99.90
19586;DHT22;9939;49.246;9.106;2022-07-12T08:59:20;26.10;99.90
19586;DHT22;9939;49.246;9.106;2022-07-12T09:01:51;26.40;99.90
19586;DHT22;9939;49.246;9.106;2022-07-12T09:04:21;26.50;99.90
19586;DHT22;9939;49.246;9.106;2022-07-12T09:06:49;26.70;99.90
19586;DHT22;9939;49.246;9.106;2022-07-12T09:11:57;27.10;99.90
19586;DHT22;9939;49.246;9.106;2022-07-12T09:14:24;26.60;99.90
19586;DHT22;9939;49.246;9.106;2022-07-12T09:17:07;25.80;99.90
19586;DHT22;9939;49.246;9.106;2022-07-12T09:19:39;25.80;99.90
19586;DHT22;9939;49.246;9.106;2022-07-12T09:22:15;25.60;99.90
19586;DHT22;9939;49.246;9.106;2022-07-12T09:24:43;26.10;99.90
19586;DHT22;9939;49.246;9.106;2022-07-12T09:27:10;26.80;99.90
19586;DHT22;9939;49.246;9.106;2022-07-12T09:29:48;26.60;99.90
19586;DHT22;9939;49.246;9.106;2022-07-12T09:32:18;25.60;99.90
19586;DHT22;9939;49.246;9.106;2022-07-12T09:35:04;25.90;99.90
19586;DHT22;9939;49.246;9.106;2022-07-12T09:37:50;26.10;99.90
19586;DHT22;9939;49.246;9.106;2022-07-12T09:40:17;26.30;99.90
19586;DHT22;9939;49.246;9.106;2022-07-12T09:42:44;26.40;99.90
19586;DHT22;9939;49.246;9.106;2022-07-12T09:45:12;26.00;99.90
19586;DHT22;9939;49.246;9.106;2022-07-12T09:47:39;25.80;99.90
19586;DHT22;9939;49.246;9.106;2022-07-12T09:50:07;25.50;99.90
19586;DHT22;9939;49.246;9.106;2022-07-12T09:52:37;25.60;99.90
19586;DHT22;9939;49.246;9.106;2022-07-12T09:55:05;25.60;99.90
19586;DHT22;9939;49.246;9.106;2022-07-12T09:57:37;25.30;99.90
19586;DHT22;9939;49.246;9.106;2022-07-12T10:00:06;27.20;99.90
19586;DHT22;9939;49.246;9.106;2022-07-12T10:02:39;28.70;99.90
19586;DHT22;9939;49.246;9.106;2022-07-12T10:05:08;30.90;99.90
19586;DHT22;9939;49.246;9.106;2022-07-12T10:07:39;31.30;99.90
19586;DHT22;9939;49.246;9.106;2022-07-12T10:10:07;30.40;99.90
19586;DHT22;9939;49.246;9.106;2022-07-12T10:12:35;30.70;99.90
19586;DHT22;9939;49.246;9.106;2022-07-12T10:15:04;30.80;99.90
19586;DHT22;9939;49.246;9.106;2022-07-12T10:17:35;32.10;99.90
19586;DHT22;9939;49.246;9.106;2022-07-12T10:20:20;31.20;99.90
19586;DHT22;9939;49.246;9.106;2022-07-12T10:22:54;31.30;99.90
19586;DHT22;9939;49.246;9.106;2022-07-12T10:25:30;31.20;99.40
19586;DHT22;9939;49.246;9.106;2022-07-12T10:28:01;32.50;98.00
19586;DHT22;9939;49.246;9.106;2022-07-12T10:30:29;31.60;97.20
19586;DHT22;9939;49.246;9.106;2022-07-12T10:32:58;33.20;96.50
19586;DHT22;9939;49.246;9.106;2022-07-12T10:35:30;34.20;95.90
19586;DHT22;9939;49.246;9.106;2022-07-12T10:38:16;34.30;94.20
19586;DHT22;9939;49.246;9.106;2022-07-12T10:40:47;33.70;94.60
19586;DHT22;9939;49.246;9.106;2022-07-12T10:43:17;32.60;94.80
19586;DHT22;9939;49.246;9.106;2022-07-12T10:45:45;31.00;96.30
19586;DHT22;9939;49.246;9.106;2022-07-12T10:53:29;31.80;95.00
19586;DHT22;9939;49.246;9.106;2022-07-12T10:56:14;31.30;96.00
19586;DHT22;9939;49.246;9.106;2022-07-12T10:59:01;33.00;94.60
19586;DHT22;9939;49.246;9.106;2022-07-12T11:01:31;32.30;95.20
19586;DHT22;9939;49.246;9.106;2022-07-12T11:04:06;32.70;94.10
19586;DHT22;9939;49.246;9.106;2022-07-12T11:06:38;31.90;94.70
19586;DHT22;9939;49.246;9.106;2022-07-12T11:09:11;31.90;94.50
19586;DHT22;9939;49.246;9.106;2022-07-12T11:11:45;32.60;94.30
19586;DHT22;9939;49.246;9.106;2022-07-12T11:14:23;32.90;93.80
19586;DHT22;9939;49.246;9.106;2022-07-12T11:16:51;34.40;92.90
19586;DHT22;9939;49.246;9.106;2022-07-12T11:19:29;34.10;92.40
19586;DHT22;9939;49.246;9.106;2022-07-12T11:21:57;34.00;92.30
19586;DHT22;9939;49.246;9.106;2022-07-12T11:26:53;34.10;92.70
19586;DHT22;9939;49.246;9.106;2022-07-12T11:29:21;34.40;92.20
19586;DHT22;9939;49.246;9.106;2022-07-12T11:31:48;34.80;90.90
19586;DHT22;9939;49.246;9.106;2022-07-12T11:34:26;33.60;91.30
19586;DHT22;9939;49.246;9.106;2022-07-12T11:36:54;34.30;91.50
19586;DHT22;9939;49.246;9.106;2022-07-12T11:41:59;32.90;91.60
19586;DHT22;9939;49.246;9.106;2022-07-12T11:44:45;33.30;92.10
19586;DHT22;9939;49.246;9.106;2022-07-12T11:47:13;33.30;91.80
19586;DHT22;9939;49.246;9.106;2022-07-12T11:49:48;34.50;90.30
19586;DHT22;9939;49.246;9.106;2022-07-12T11:52:17;32.20;92.10
19586;DHT22;9939;49.246;9.106;2022-07-12T11:54:46;32.60;91.80
19586;DHT22;9939;49.246;9.106;2022-07-12T11:57:14;33.30;91.00
19586;DHT22;9939;49.246;9.106;2022-07-12T11:59:42;32.20;91.00
19586;DHT22;9939;49.246;9.106;2022-07-12T12:02:13;34.40;90.80
19586;DHT22;9939;49.246;9.106;2022-07-12T12:04:49;36.10;87.10
19586;DHT22;9939;49.246;9.106;2022-07-12T12:07:18;36.60;86.90
19586;DHT22;9939;49.246;9.106;2022-07-12T12:12:51;35.60;88.20
19586;DHT22;9939;49.246;9.106;2022-07-12T12:15:24;36.60;84.20
19586;DHT22;9939;49.246;9.106;2022-07-12T12:17:56;35.00;87.70
19586;DHT22;9939;49.246;9.106;2022-07-12T12:20:34;33.70;88.40
19586;DHT22;9939;49.246;9.106;2022-07-12T12:23:03;33.60;88.30
19586;DHT22;9939;49.246;9.106;2022-07-12T12:25:31;34.90;86.00
19586;DHT22;9939;49.246;9.106;2022-07-12T12:28:00;35.30;86.10
19586;DHT22;9939;49.246;9.106;2022-07-12T12:30:54;35.90;84.30
19586;DHT22;9939;49.246;9.106;2022-07-12T12:36:16;36.80;83.30
19586;DHT22;9939;49.246;9.106;2022-07-12T12:38:44;37.70;80.40
19586;DHT22;9939;49.246;9.106;2022-07-12T12:41:12;38.10;79.60
19586;DHT22;9939;49.246;9.106;2022-07-12T12:43:40;38.00;79.10
19586;DHT22;9939;49.246;9.106;2022-07-12T12:46:07;38.50;78.60
19586;DHT22;9939;49.246;9.106;2022-07-12T12:48:35;39.90;77.00
19586;DHT22;9939;49.246;9.106;2022-07-12T12:51:09;38.80;75.40
19586;DHT22;9939;49.246;9.106;2022-07-12T12:53:38;38.60;75.80
19586;DHT22;9939;49.246;9.106;2022-07-12T12:56:11;38.60;75.70
19586;DHT22;9939;49.246;9.106;2022-07-12T12:58:38;38.60;76.00
19586;DHT22;9939;49.246;9.106;2022-07-12T13:01:06;39.10;74.70
19586;DHT22;9939;49.246;9.106;2022-07-12T13:03:34;38.30;76.20
19586;DHT22;9939;49.246;9.106;2022-07-12T13:06:01;38.90;74.60
19586;DHT22;9939;49.246;9.106;2022-07-12T13:08:28;37.90;75.50
19586;DHT22;9939;49.246;9.106;2022-07-12T13:10:55;38.80;74.10
19586;DHT22;9939;49.246;9.106;2022-07-12T13:13:41;37.50;74.80
19586;DHT22;9939;49.246;9.106;2022-07-12T13:16:08;36.70;76.70
19586;DHT22;9939;49.246;9.106;2022-07-12T13:18:35;38.70;75.30
19586;DHT22;9939;49.246;9.106;2022-07-12T13:21:03;41.00;70.70
19586;DHT22;9939;49.246;9.106;2022-07-12T13:23:30;40.60;70.40
19586;DHT22;9939;49.246;9.106;2022-07-12T13:25:56;41.50;67.10
19586;DHT22;9939;49.246;9.106;2022-07-12T13:28:23;42.70;64.10
19586;DHT22;9939;49.246;9.106;2022-07-12T13:30:50;41.80;65.90
19586;DHT22;9939;49.246;9.106;2022-07-12T13:33:21;39.90;67.80
19586;DHT22;9939;49.246;9.106;2022-07-12T13:35:48;39.80;67.70
19586;DHT22;9939;49.246;9.106;2022-07-12T13:38:15;42.70;64.50
19586;DHT22;9939;49.246;9.106;2022-07-12T13:40:42;43.10;61.00
19586;DHT22;9939;49.246;9.106;2022-07-12T13:43:09;44.40;61.30
19586;DHT22;9939;49.246;9.106;2022-07-12T13:45:36;44.70;59.50
19586;DHT22;9939;49.246;9.106;2022-07-12T13:48:04;46.40;57.40
19586;DHT22;9939;49.246;9.106;2022-07-12T13:50:30;42.70;61.30
19586;DHT22;9939;49.246;9.106;2022-07-12T13:52:58;43.30;59.00
19586;DHT22;9939;49.246;9.106;2022-07-12T13:55:27;43.40;58.60
19586;DHT22;9939;49.246;9.106;2022-07-12T13:57:55;44.70;58.70
19586;DHT22;9939;49.246;9.106;2022-07-12T14:00:22;44.10;56.90
19586;DHT22;9939;49.246;9.106;2022-07-12T14:02:49;42.40;59.10
19586;DHT22;9939;49.246;9.106;2022-07-12T14:05:21;42.80;59.50
19586;DHT22;9939;49.246;9.106;2022-07-12T14:07:48;43.50;58.30
19586;DHT22;9939;49.246;9.106;2022-07-12T14:10:16;41.30;57.80
19586;DHT22;9939;49.246;9.106;2022-07-12T14:12:43;42.20;58.90
19586;DHT22;9939;49.246;9.106;2022-07-12T14:15:11;42.70;58.80
19586;DHT22;9939;49.246;9.106;2022-07-12T14:17:43;44.00;56.90
19586;DHT22;9939;49.246;9.106;2022-07-12T14:20:15;44.10;56.60
19586;DHT22;9939;49.246;9.106;2022-07-12T14:22:43;42.20;59.60
19586;DHT22;9939;49.246;9.106;2022-07-12T14:25:11;42.50;57.60
19586;DHT22;9939;49.246;9.106;2022-07-12T14:27:38;42.90;58.10
19586;DHT22;9939;49.246;9.106;2022-07-12T14:30:07;40.50;60.60
19586;DHT22;9939;49.246;9.106;2022-07-12T14:32:35;39.80;62.20
19586;DHT22;9939;49.246;9.106;2022-07-12T14:35:03;40.30;62.10
19586;DHT22;9939;49.246;9.106;2022-07-12T14:37:30;42.00;58.70
19586;DHT22;9939;49.246;9.106;2022-07-12T14:39:56;42.70;58.30
19586;DHT22;9939;49.246;9.106;2022-07-12T14:42:23;44.60;55.60
19586;DHT22;9939;49.246;9.106;2022-07-12T14:44:50;43.20;56.80
19586;DHT22;9939;49.246;9.106;2022-07-12T14:47:20;41.10;58.10
19586;DHT22;9939;49.246;9.106;2022-07-12T14:49:47;40.20;60.30
19586;DHT22;9939;49.246;9.106;2022-07-12T14:52:14;39.90;59.60
19586;DHT22;9939;49.246;9.106;2022-07-12T14:54:41;42.40;58.60
19586;DHT22;9939;49.246;9.106;2022-07-12T14:57:08;43.30;57.80
19586;DHT22;9939;49.246;9.106;2022-07-12T14:59:35;43.50;55.90
19586;DHT22;9939;49.246;9.106;2022-07-12T15:02:02;44.60;56.30
19586;DHT22;9939;49.246;9.106;2022-07-12T15:04:30;44.30;55.50
19586;DHT22;9939;49.246;9.106;2022-07-12T15:06:57;42.70;56.70
19586;DHT22;9939;49.246;9.106;2022-07-12T15:09:24;42.60;56.70
19586;DHT22;9939;49.246;9.106;2022-07-12T15:11:50;43.30;55.50
19586;DHT22;9939;49.246;9.106;2022-07-12T15:14:17;43.50;55.60
19586;DHT22;9939;49.246;9.106;2022-07-12T15:16:44;42.90;56.30
19586;DHT22;9939;49.246;9.106;2022-07-12T15:19:11;43.40;56.20
19586;DHT22;9939;49.246;9.106;2022-07-12T15:21:38;43.30;55.20
19586;DHT22;9939;49.246;9.106;2022-07-12T15:24:05;42.50;56.20
19586;DHT22;9939;49.246;9.106;2022-07-12T15:26:32;39.50;60.00
19586;DHT22;9939;49.246;9.106;2022-07-12T15:29:01;39.10;59.50
19586;DHT22;9939;49.246;9.106;2022-07-12T15:31:30;37.50;62.50
19586;DHT22;9939;49.246;9.106;2022-07-12T15:33:58;39.40;62.40
19586;DHT22;9939;49.246;9.106;2022-07-12T15:36:25;41.30;58.40
19586;DHT22;9939;49.246;9.106;2022-07-12T15:38:52;43.30;56.00
19586;DHT22;9939;49.246;9.106;2022-07-12T15:41:20;45.70;53.80
19586;DHT22;9939;49.246;9.106;2022-07-12T15:43:47;46.10;52.70
19586;DHT22;9939;49.246;9.106;2022-07-12T15:46:13;44.60;54.10
19586;DHT22;9939;49.246;9.106;2022-07-12T15:48:41;43.60;54.50
19586;DHT22;9939;49.246;9.106;2022-07-12T15:51:08;41.90;56.60
19586;DHT22;9939;49.246;9.106;2022-07-12T15:53:37;43.20;55.50
19586;DHT22;9939;49.246;9.106;2022-07-12T15:56:08;43.50;54.60
19586;DHT22;9939;49.246;9.106;2022-07-12T15:58:37;43.50;54.10
19586;DHT22;9939;49.246;9.106;2022-07-12T16:01:05;41.50;56.40
19586;DHT22;9939;49.246;9.106;2022-07-12T16:03:33;42.30;55.10
19586;DHT22;9939;49.246;9.106;2022-07-12T16:06:02;43.70;54.40
19586;DHT22;9939;49.246;9.106;2022-07-12T16:08:30;43.50;54.80
19586;DHT22;9939;49.246;9.106;2022-07-12T16:10:59;42.30;56.70
19586;DHT22;9939;49.246;9.106;2022-07-12T16:13:26;43.20;56.90